sensor_id;sensor_type;location;lat;lon;timestamp;temperature;humidity
40123;DHT22;25832;45.490;4.912;2022-10-30T00:00:38;16.90;99.90
40123;DHT22;25832;45.490;4.912;2022-10-30T00:03:04;16.90;99.90
40123;DHT22;25832;45.490;4.912;2022-10-30T00:05:30;16.90;99.90
40123;DHT22;25832;45.490;4.912;2022-10-30T00:07:56;16.80;99.90
40123;DHT22;25832;45.490;4.912;2022-10-30T00:10:23;16.80;99.90
40123;DHT22;25832;45.490;4.912;2022-10-30T00:12:48;16.80;99.90
40123;DHT22;25832;45.490;4.912;2022-10-30T00:15:14;16.90;99.90
40123;DHT22;25832;45.490;4.912;2022-10-30T00:17:40;16.90;99.90
40123;DHT22;25832;45.490;4.912;2022-10-30T00:20:06;16.90;99.90
40123;DHT22;25832;45.490;4.912;2022-10-30T00:22:34;16.90;99.90
40123;DHT22;25832;45.490;4.912;2022-10-30T00:25:00;16.90;99.90
40123;DHT22;25832;45.490;4.912;2022-10-30T00:27:26;16.90;99.90
40123;DHT22;25832;45.490;4.912;2022-10-30T00:29:52;16.90;99.90
40123;DHT22;25832;45.490;4.912;2022-10-30T00:32:17;16.90;99.90
40123;DHT22;25832;45.490;4.912;2022-10-30T00:34:43;16.90;99.90
40123;DHT22;25832;45.490;4.912;2022-10-30T00:37:09;16.90;99.90
40123;DHT22;25832;45.490;4.912;2022-10-30T00:39:34;16.90;99.90
40123;DHT22;25832;45.490;4.912;2022-10-30T00:42:00;16.90;99.90
40123;DHT22;25832;45.490;4.912;2022-10-30T00:47:06;16.80;99.90
40123;DHT22;25832;45.490;4.912;2022-10-30T00:49:43;16.80;99.90
40123;DHT22;25832;45.490;4.912;2022-10-30T00:52:11;16.80;99.90
40123;DHT22;25832;45.490;4.912;2022-10-30T00:54:37;16.80;99.90
40123;DHT22;25832;45.490;4.912;2022-10-30T00:57:05;16.80;99.90
40123;DHT22;25832;45.490;4.912;2022-10-30T00:59:33;16.70;99.90
40123;DHT22;25832;45.490;4.912;2022-10-30T01:02:01;16.70;99.90
40123;DHT22;25832;45.490;4.912;2022-10-30T01:04:28;16.60;99.90
40123;DHT22;25832;45.490;4.912;2022-10-30T01:06:54;16.60;99.90
40123;DHT22;25832;45.490;4.912;2022-10-30T01:09:20;16.60;99.90
40123;DHT22;25832;45.490;4.912;2022-10-30T01:11:47;16.60;99.90
40123;DHT22;25832;45.490;4.912;2022-10-30T01:14:15;16.60;99.90
40123;DHT22;25832;45.490;4.912;2022-10-30T01:19:42;16.60;99.90
40123;DHT22;25832;45.490;4.912;2022-10-30T01:36:06;16.40;99.90
40123;DHT22;25832;45.490;4.912;2022-10-30T01:41:20;16.30;99.90
40123;DHT22;25832;45.490;4.912;2022-10-30T01:43:48;16.30;99.90
40123;DHT22;25832;45.490;4.912;2022-10-30T01:46:32;16.30;99.90
40123;DHT22;25832;45.490;4.912;2022-10-30T01:51:56;16.20;99.90
40123;DHT22;25832;45.490;4.912;2022-10-30T01:54:37;16.20;99.90
40123;DHT22;25832;45.490;4.912;2022-10-30T02:00:06;16.10;99.90
40123;DHT22;25832;45.490;4.912;2022-10-30T02:02:32;16.20;99.90
40123;DHT22;25832;45.490;4.912;2022-10-30T02:04:59;16.10;99.90
40123;DHT22;25832;45.490;4.912;2022-10-30T02:07:24;16.10;99.90
40123;DHT22;25832;45.490;4.912;2022-10-30T02:09:51;16.10;99.90
40123;DHT22;25832;45.490;4.912;2022-10-30T02:12:18;16.10;99.90
40123;DHT22;25832;45.490;4.912;2022-10-30T02:14:47;16.10;99.90
40123;DHT22;25832;45.490;4.912;2022-10-30T02:17:13;16.10;99.90
40123;DHT22;25832;45.490;4.912;2022-10-30T02:19:39;16.10;99.90
40123;DHT22;25832;45.490;4.912;2022-10-30T02:22:05;16.10;99.90
40123;DHT22;25832;45.490;4.912;2022-10-30T02:24:31;16.00;99.90
40123;DHT22;25832;45.490;4.912;2022-10-30T02:26:57;16.00;99.90
40123;DHT22;25832;45.490;4.912;2022-10-30T02:29:23;16.00;99.90
40123;DHT22;25832;45.490;4.912;2022-10-30T02:31:48;16.00;99.90
40123;DHT22;25832;45.490;4.912;2022-10-30T02:34:14;16.00;99.90
40123;DHT22;25832;45.490;4.912;2022-10-30T02:36:40;16.00;99.90
40123;DHT22;25832;45.490;4.912;2022-10-30T02:39:06;15.90;99.90
40123;DHT22;25832;45.490;4.912;2022-10-30T02:41:32;15.90;99.90
40123;DHT22;25832;45.490;4.912;2022-10-30T02:43:58;15.90;99.90
40123;DHT22;25832;45.490;4.912;2022-10-30T02:46:23;15.90;99.90
40123;DHT22;25832;45.490;4.912;2022-10-30T02:48:49;15.80;99.90
40123;DHT22;25832;45.490;4.912;2022-10-30T02:51:15;15.80;99.90
40123;DHT22;25832;45.490;4.912;2022-10-30T02:53:41;15.80;99.90
40123;DHT22;25832;45.490;4.912;2022-10-30T02:56:09;15.80;99.90
40123;DHT22;25832;45.490;4.912;2022-10-30T02:58:36;15.80;99.90
40123;DHT22;25832;45.490;4.912;2022-10-30T03:01:13;15.80;99.90
40123;DHT22;25832;45.490;4.912;2022-10-30T03:03:40;15.80;99.90
40123;DHT22;25832;45.490;4.912;2022-10-30T03:06:07;15.80;99.90
40123;DHT22;25832;45.490;4.912;2022-10-30T03:08:34;15.70;99.90
40123;DHT22;25832;45.490;4.912;2022-10-30T03:11:05;15.70;99.90
40123;DHT22;25832;45.490;4.912;2022-10-30T03:13:32;15.70;99.90
40123;DHT22;25832;45.490;4.912;2022-10-30T03:16:02;15.60;99.90
40123;DHT22;25832;45.490;4.912;2022-10-30T03:18:28;15.60;99.90
40123;DHT22;25832;45.490;4.912;2022-10-30T03:20:59;15.60;99.90
40123;DHT22;25832;45.490;4.912;2022-10-30T03:23:25;15.50;99.90
40123;DHT22;25832;45.490;4.912;2022-10-30T03:25:55;15.50;99.90
40123;DHT22;25832;45.490;4.912;2022-10-30T03:28:22;15.50;99.90
40123;DHT22;25832;45.490;4.912;2022-10-30T03:30:48;15.50;99.90
40123;DHT22;25832;45.490;4.912;2022-10-30T03:33:14;15.50;99.90
40123;DHT22;25832;45.490;4.912;2022-10-30T03:35:41;15.50;99.90
40123;DHT22;25832;45.490;4.912;2022-10-30T03:38:07;15.50;99.90
40123;DHT22;25832;45.490;4.912;2022-10-30T03:40:33;15.50;99.90
40123;DHT22;25832;45.490;4.912;2022-10-30T03:42:58;15.50;99.90
40123;DHT22;25832;45.490;4.912;2022-10-30T03:45:24;15.50;99.90
40123;DHT22;25832;45.490;4.912;2022-10-30T03:47:49;15.50;99.90
40123;DHT22;25832;45.490;4.912;2022-10-30T03:50:15;15.50;99.90
40123;DHT22;25832;45.490;4.912;2022-10-30T03:52:41;15.50;99.90
40123;DHT22;25832;45.490;4.912;2022-10-30T03:55:07;15.50;99.90
40123;DHT22;25832;45.490;4.912;2022-10-30T03:57:36;15.50;99.90
40123;DHT22;25832;45.490;4.912;2022-10-30T04:00:02;15.50;99.90
40123;DHT22;25832;45.490;4.912;2022-10-30T04:02:27;15.50;99.90
40123;DHT22;25832;45.490;4.912;2022-10-30T04:04:53;15.40;99.90
40123;DHT22;25832;45.490;4.912;2022-10-30T04:07:18;15.40;99.90
40123;DHT22;25832;45.490;4.912;2022-10-30T04:09:44;15.40;99.90
40123;DHT22;25832;45.490;4.912;2022-10-30T04:12:10;15.40;99.90
40123;DHT22;25832;45.490;4.912;2022-10-30T04:14:35;15.40;99.90
40123;DHT22;25832;45.490;4.912;2022-10-30T04:17:01;15.40;99.90
40123;DHT22;25832;45.490;4.912;2022-10-30T04:19:27;15.40;99.90
40123;DHT22;25832;45.490;4.912;2022-10-30T04:21:52;15.30;99.90
40123;DHT22;25832;45.490;4.912;2022-10-30T04:24:18;15.40;99.90
40123;DHT22;25832;45.490;4.912;2022-10-30T04:26:44;15.40;99.90
40123;DHT22;25832;45.490;4.912;2022-10-30T04:29:09;15.50;99.90
40123;DHT22;25832;45.490;4.912;2022-10-30T04:31:35;15.50;99.90
40123;DHT22;25832;45.490;4.912;2022-10-30T04:34:00;15.50;99.90
40123;DHT22;25832;45.490;4.912;2022-10-30T04:36:27;15.50;99.90
40123;DHT22;25832;45.490;4.912;2022-10-30T04:38:59;15.50;99.90
40123;DHT22;25832;45.490;4.912;2022-10-30T04:41:24;15.50;99.90
40123;DHT22;25832;45.490;4.912;2022-10-30T04:43:51;15.50;99.90
40123;DHT22;25832;45.490;4.912;2022-10-30T04:46:16;15.50;99.90
40123;DHT22;25832;45.490;4.912;2022-10-30T04:48:43;15.60;99.90
40123;DHT22;25832;45.490;4.912;2022-10-30T04:51:09;15.60;99.90
40123;DHT22;25832;45.490;4.912;2022-10-30T04:53:36;15.60;99.90
40123;DHT22;25832;45.490;4.912;2022-10-30T04:56:03;15.60;99.90
40123;DHT22;25832;45.490;4.912;2022-10-30T04:58:28;15.60;99.90
40123;DHT22;25832;45.490;4.912;2022-10-30T05:00:54;15.60;99.90
40123;DHT22;25832;45.490;4.912;2022-10-30T05:03:23;15.60;99.90
40123;DHT22;25832;45.490;4.912;2022-10-30T05:06:01;15.60;99.90
40123;DHT22;25832;45.490;4.912;2022-10-30T05:08:27;15.60;99.90
40123;DHT22;25832;45.490;4.912;2022-10-30T05:10:53;15.60;99.90
40123;DHT22;25832;45.490;4.912;2022-10-30T05:13:20;15.60;99.90
40123;DHT22;25832;45.490;4.912;2022-10-30T05:15:46;15.60;99.90
40123;DHT22;25832;45.490;4.912;2022-10-30T05:18:11;15.60;99.90
40123;DHT22;25832;45.490;4.912;2022-10-30T05:20:37;15.50;99.90
40123;DHT22;25832;45.490;4.912;2022-10-30T05:23:03;15.50;99.90
40123;DHT22;25832;45.490;4.912;2022-10-30T05:25:29;15.50;99.90
40123;DHT22;25832;45.490;4.912;2022-10-30T05:30:26;15.50;99.90
40123;DHT22;25832;45.490;4.912;2022-10-30T05:32:57;15.50;99.90
40123;DHT22;25832;45.490;4.912;2022-10-30T05:35:22;15.50;99.90
40123;DHT22;25832;45.490;4.912;2022-10-30T05:37:48;15.40;99.90
40123;DHT22;25832;45.490;4.912;2022-10-30T05:40:14;15.40;99.90
40123;DHT22;25832;45.490;4.912;2022-10-30T05:42:44;15.40;99.90
40123;DHT22;25832;45.490;4.912;2022-10-30T05:45:10;15.40;99.90
40123;DHT22;25832;45.490;4.912;2022-10-30T05:47:36;15.30;99.90
40123;DHT22;25832;45.490;4.912;2022-10-30T05:50:02;15.30;99.90
40123;DHT22;25832;45.490;4.912;2022-10-30T05:52:28;15.30;99.90
40123;DHT22;25832;45.490;4.912;2022-10-30T05:54:53;15.30;99.90
40123;DHT22;25832;45.490;4.912;2022-10-30T05:57:19;15.30;99.90
40123;DHT22;25832;45.490;4.912;2022-10-30T05:59:45;15.30;99.90
40123;DHT22;25832;45.490;4.912;2022-10-30T06:02:10;15.30;99.90
40123;DHT22;25832;45.490;4.912;2022-10-30T06:04:36;15.30;99.90
40123;DHT22;25832;45.490;4.912;2022-10-30T06:07:02;15.30;99.90
40123;DHT22;25832;45.490;4.912;2022-10-30T06:09:27;15.30;99.90
40123;DHT22;25832;45.490;4.912;2022-10-30T06:11:53;15.30;99.90
40123;DHT22;25832;45.490;4.912;2022-10-30T06:14:19;15.30;99.90
40123;DHT22;25832;45.490;4.912;2022-10-30T06:16:44;15.40;99.90
40123;DHT22;25832;45.490;4.912;2022-10-30T06:19:10;15.40;99.90
40123;DHT22;25832;45.490;4.912;2022-10-30T06:21:36;15.40;99.90
40123;DHT22;25832;45.490;4.912;2022-10-30T06:24:01;15.30;99.90
40123;DHT22;25832;45.490;4.912;2022-10-30T06:26:27;15.30;99.90
40123;DHT22;25832;45.490;4.912;2022-10-30T06:28:52;15.30;99.90
40123;DHT22;25832;45.490;4.912;2022-10-30T06:31:18;15.30;99.90
40123;DHT22;25832;45.490;4.912;2022-10-30T06:33:44;15.30;99.90
40123;DHT22;25832;45.490;4.912;2022-10-30T06:36:09;15.20;99.90
40123;DHT22;25832;45.490;4.912;2022-10-30T06:38:35;15.30;99.90
40123;DHT22;25832;45.490;4.912;2022-10-30T06:41:01;15.30;99.90
40123;DHT22;25832;45.490;4.912;2022-10-30T06:43:27;15.30;99.90
40123;DHT22;25832;45.490;4.912;2022-10-30T06:45:52;15.30;99.90
40123;DHT22;25832;45.490;4.912;2022-10-30T06:48:18;15.30;99.90
40123;DHT22;25832;45.490;4.912;2022-10-30T06:50:43;15.30;99.90
40123;DHT22;25832;45.490;4.912;2022-10-30T06:53:09;15.40;99.90
40123;DHT22;25832;45.490;4.912;2022-10-30T06:55:35;15.40;99.90
40123;DHT22;25832;45.490;4.912;2022-10-30T06:58:00;15.40;99.90
40123;DHT22;25832;45.490;4.912;2022-10-30T07:00:26;15.40;99.90
40123;DHT22;25832;45.490;4.912;2022-10-30T07:02:59;15.50;99.90
40123;DHT22;25832;45.490;4.912;2022-10-30T07:05:25;15.50;99.90
40123;DHT22;25832;45.490;4.912;2022-10-30T07:07:50;15.50;99.90
40123;DHT22;25832;45.490;4.912;2022-10-30T07:10:17;15.60;99.90
40123;DHT22;25832;45.490;4.912;2022-10-30T07:12:50;15.70;99.90
40123;DHT22;25832;45.490;4.912;2022-10-30T07:15:15;15.70;99.90
40123;DHT22;25832;45.490;4.912;2022-10-30T07:17:41;15.70;99.90
40123;DHT22;25832;45.490;4.912;2022-10-30T07:20:07;15.80;99.90
40123;DHT22;25832;45.490;4.912;2022-10-30T07:22:33;15.90;99.90
40123;DHT22;25832;45.490;4.912;2022-10-30T07:24:58;15.90;99.90
40123;DHT22;25832;45.490;4.912;2022-10-30T07:27:24;16.10;99.90
40123;DHT22;25832;45.490;4.912;2022-10-30T07:29:50;16.20;99.90
40123;DHT22;25832;45.490;4.912;2022-10-30T07:32:15;16.40;99.90
40123;DHT22;25832;45.490;4.912;2022-10-30T07:34:41;16.50;99.90
40123;DHT22;25832;45.490;4.912;2022-10-30T07:37:06;16.70;99.90
40123;DHT22;25832;45.490;4.912;2022-10-30T07:39:32;16.90;99.50
40123;DHT22;25832;45.490;4.912;2022-10-30T07:41:58;17.00;99.30
40123;DHT22;25832;45.490;4.912;2022-10-30T07:44:23;17.10;99.00
40123;DHT22;25832;45.490;4.912;2022-10-30T07:46:49;17.30;99.00
40123;DHT22;25832;45.490;4.912;2022-10-30T07:49:14;17.40;98.90
40123;DHT22;25832;45.490;4.912;2022-10-30T07:51:40;17.50;98.10
40123;DHT22;25832;45.490;4.912;2022-10-30T07:54:06;17.60;98.10
40123;DHT22;25832;45.490;4.912;2022-10-30T07:56:31;17.70;97.90
40123;DHT22;25832;45.490;4.912;2022-10-30T07:58:57;17.80;97.90
40123;DHT22;25832;45.490;4.912;2022-10-30T08:01:22;17.90;97.80
40123;DHT22;25832;45.490;4.912;2022-10-30T08:03:48;18.00;97.70
40123;DHT22;25832;45.490;4.912;2022-10-30T08:06:14;18.10;97.70
40123;DHT22;25832;45.490;4.912;2022-10-30T08:08:39;18.20;97.80
40123;DHT22;25832;45.490;4.912;2022-10-30T08:11:05;18.20;97.90
40123;DHT22;25832;45.490;4.912;2022-10-30T08:13:30;18.20;97.70
40123;DHT22;25832;45.490;4.912;2022-10-30T08:15:56;18.30;97.50
40123;DHT22;25832;45.490;4.912;2022-10-30T08:18:22;18.40;97.80
40123;DHT22;25832;45.490;4.912;2022-10-30T08:20:48;18.40;97.30
40123;DHT22;25832;45.490;4.912;2022-10-30T08:23:14;18.50;97.10
40123;DHT22;25832;45.490;4.912;2022-10-30T08:25:42;18.60;97.00
40123;DHT22;25832;45.490;4.912;2022-10-30T08:28:09;18.60;96.80
40123;DHT22;25832;45.490;4.912;2022-10-30T08:30:36;18.70;96.50
40123;DHT22;25832;45.490;4.912;2022-10-30T08:33:06;18.80;96.30
40123;DHT22;25832;45.490;4.912;2022-10-30T08:35:31;18.80;96.60
40123;DHT22;25832;45.490;4.912;2022-10-30T08:37:58;18.90;96.20
40123;DHT22;25832;45.490;4.912;2022-10-30T08:40:25;19.00;96.30
40123;DHT22;25832;45.490;4.912;2022-10-30T08:42:55;19.10;96.10
40123;DHT22;25832;45.490;4.912;2022-10-30T08:45:22;19.20;96.20
40123;DHT22;25832;45.490;4.912;2022-10-30T08:47:59;19.20;95.90
40123;DHT22;25832;45.490;4.912;2022-10-30T08:50:26;19.20;96.20
40123;DHT22;25832;45.490;4.912;2022-10-30T08:52:51;19.30;96.00
40123;DHT22;25832;45.490;4.912;2022-10-30T08:55:17;19.40;96.00
40123;DHT22;25832;45.490;4.912;2022-10-30T08:57:43;19.40;96.10
40123;DHT22;25832;45.490;4.912;2022-10-30T09:00:12;19.60;95.90
40123;DHT22;25832;45.490;4.912;2022-10-30T09:02:38;19.60;95.70
40123;DHT22;25832;45.490;4.912;2022-10-30T09:05:05;19.70;96.10
40123;DHT22;25832;45.490;4.912;2022-10-30T09:07:31;19.80;96.20
40123;DHT22;25832;45.490;4.912;2022-10-30T09:09:57;19.80;96.00
40123;DHT22;25832;45.490;4.912;2022-10-30T09:12:22;19.90;95.90
40123;DHT22;25832;45.490;4.912;2022-10-30T09:14:48;19.90;95.60
40123;DHT22;25832;45.490;4.912;2022-10-30T09:17:14;20.00;96.20
40123;DHT22;25832;45.490;4.912;2022-10-30T09:19:39;20.00;96.10
40123;DHT22;25832;45.490;4.912;2022-10-30T09:22:06;20.00;96.10
40123;DHT22;25832;45.490;4.912;2022-10-30T09:24:32;20.10;95.40
40123;DHT22;25832;45.490;4.912;2022-10-30T09:26:57;20.10;96.00
40123;DHT22;25832;45.490;4.912;2022-10-30T09:29:23;20.20;95.80
40123;DHT22;25832;45.490;4.912;2022-10-30T09:31:49;20.20;96.00
40123;DHT22;25832;45.490;4.912;2022-10-30T09:34:14;20.20;96.00
40123;DHT22;25832;45.490;4.912;2022-10-30T09:36:40;20.30;96.00
40123;DHT22;25832;45.490;4.912;2022-10-30T09:39:09;20.30;95.70
40123;DHT22;25832;45.490;4.912;2022-10-30T09:50:24;20.50;96.10
40123;DHT22;25832;45.490;4.912;2022-10-30T10:01:21;20.80;95.70
40123;DHT22;25832;45.490;4.912;2022-10-30T10:04:05;20.90;95.60
40123;DHT22;25832;45.490;4.912;2022-10-30T10:06:35;20.90;95.70
40123;DHT22;25832;45.490;4.912;2022-10-30T10:09:06;21.10;94.90
40123;DHT22;25832;45.490;4.912;2022-10-30T10:11:42;21.10;94.90
40123;DHT22;25832;45.490;4.912;2022-10-30T10:14:17;21.30;94.60
40123;DHT22;25832;45.490;4.912;2022-10-30T10:16:51;21.40;94.60
40123;DHT22;25832;45.490;4.912;2022-10-30T10:19:20;21.50;94.80
40123;DHT22;25832;45.490;4.912;2022-10-30T10:21:56;21.60;94.80
40123;DHT22;25832;45.490;4.912;2022-10-30T10:24:38;21.70;94.60
40123;DHT22;25832;45.490;4.912;2022-10-30T10:32:26;21.90;94.10
40123;DHT22;25832;45.490;4.912;2022-10-30T10:40:53;22.10;93.50
40123;DHT22;25832;45.490;4.912;2022-10-30T10:47:04;22.30;93.60
40123;DHT22;25832;45.490;4.912;2022-10-30T10:52:20;22.60;92.60
40123;DHT22;25832;45.490;4.912;2022-10-30T10:54:56;22.70;91.70
40123;DHT22;25832;45.490;4.912;2022-10-30T10:57:29;22.80;91.80
40123;DHT22;25832;45.490;4.912;2022-10-30T11:00:20;22.90;92.60
40123;DHT22;25832;45.490;4.912;2022-10-30T11:05:29;23.00;92.30
40123;DHT22;25832;45.490;4.912;2022-10-30T11:10:36;23.10;91.70
40123;DHT22;25832;45.490;4.912;2022-10-30T11:13:02;23.10;91.80
40123;DHT22;25832;45.490;4.912;2022-10-30T11:15:36;23.10;91.90
40123;DHT22;25832;45.490;4.912;2022-10-30T11:18:07;23.20;91.50
40123;DHT22;25832;45.490;4.912;2022-10-30T11:20:41;23.20;91.60
40123;DHT22;25832;45.490;4.912;2022-10-30T11:23:33;23.20;92.20
40123;DHT22;25832;45.490;4.912;2022-10-30T11:26:02;23.30;91.50
40123;DHT22;25832;45.490;4.912;2022-10-30T11:31:31;23.20;91.40
40123;DHT22;25832;45.490;4.912;2022-10-30T11:36:44;23.20;91.60
40123;DHT22;25832;45.490;4.912;2022-10-30T11:39:22;23.20;91.50
40123;DHT22;25832;45.490;4.912;2022-10-30T11:44:43;23.30;92.40
40123;DHT22;25832;45.490;4.912;2022-10-30T11:47:10;23.40;92.10
40123;DHT22;25832;45.490;4.912;2022-10-30T11:49:52;23.40;92.10
40123;DHT22;25832;45.490;4.912;2022-10-30T11:52:24;23.50;92.20
40123;DHT22;25832;45.490;4.912;2022-10-30T11:55:18;23.50;91.90
40123;DHT22;25832;45.490;4.912;2022-10-30T11:57:49;23.60;92.00
40123;DHT22;25832;45.490;4.912;2022-10-30T12:00:17;23.60;91.70
40123;DHT22;25832;45.490;4.912;2022-10-30T12:02:45;23.60;91.60
40123;DHT22;25832;45.490;4.912;2022-10-30T12:05:40;23.60;91.60
40123;DHT22;25832;45.490;4.912;2022-10-30T12:10:33;23.60;91.50
40123;DHT22;25832;45.490;4.912;2022-10-30T12:13:05;23.60;92.10
40123;DHT22;25832;45.490;4.912;2022-10-30T12:15:35;23.50;91.60
40123;DHT22;25832;45.490;4.912;2022-10-30T12:18:05;23.60;91.70
40123;DHT22;25832;45.490;4.912;2022-10-30T12:20:32;23.60;91.40
40123;DHT22;25832;45.490;4.912;2022-10-30T12:23:15;23.60;91.80
40123;DHT22;25832;45.490;4.912;2022-10-30T12:25:46;23.60;91.50
40123;DHT22;25832;45.490;4.912;2022-10-30T12:28:13;23.60;91.20
40123;DHT22;25832;45.490;4.912;2022-10-30T12:31:19;23.60;91.10
40123;DHT22;25832;45.490;4.912;2022-10-30T12:33:46;23.60;91.70
40123;DHT22;25832;45.490;4.912;2022-10-30T12:36:28;23.70;91.70
40123;DHT22;25832;45.490;4.912;2022-10-30T12:38:58;23.70;91.30
40123;DHT22;25832;45.490;4.912;2022-10-30T12:41:34;23.70;91.40
40123;DHT22;25832;45.490;4.912;2022-10-30T12:44:07;23.80;91.80
40123;DHT22;25832;45.490;4.912;2022-10-30T12:46:49;23.80;91.60
40123;DHT22;25832;45.490;4.912;2022-10-30T12:49:29;23.80;91.40
40123;DHT22;25832;45.490;4.912;2022-10-30T12:54:36;23.90;91.70
40123;DHT22;25832;45.490;4.912;2022-10-30T12:57:14;23.90;92.10
40123;DHT22;25832;45.490;4.912;2022-10-30T13:10:49;23.80;89.50
40123;DHT22;25832;45.490;4.912;2022-10-30T13:13:35;23.80;90.80
40123;DHT22;25832;45.490;4.912;2022-10-30T13:16:05;23.80;92.10
40123;DHT22;25832;45.490;4.912;2022-10-30T13:18:33;23.80;92.80
40123;DHT22;25832;45.490;4.912;2022-10-30T13:23:51;23.90;92.20
40123;DHT22;25832;45.490;4.912;2022-10-30T13:26:42;23.80;91.20
40123;DHT22;25832;45.490;4.912;2022-10-30T13:29:28;23.80;91.70
40123;DHT22;25832;45.490;4.912;2022-10-30T13:32:25;23.70;91.00
40123;DHT22;25832;45.490;4.912;2022-10-30T13:35:12;23.70;91.50
40123;DHT22;25832;45.490;4.912;2022-10-30T13:37:52;23.70;91.20
40123;DHT22;25832;45.490;4.912;2022-10-30T13:40:35;23.70;92.00
40123;DHT22;25832;45.490;4.912;2022-10-30T13:49:28;23.70;91.00
40123;DHT22;25832;45.490;4.912;2022-10-30T13:52:17;23.60;91.30
40123;DHT22;25832;45.490;4.912;2022-10-30T13:54:58;23.50;91.70
40123;DHT22;25832;45.490;4.912;2022-10-30T13:57:29;23.50;91.80
40123;DHT22;25832;45.490;4.912;2022-10-30T14:00:03;23.40;91.30
40123;DHT22;25832;45.490;4.912;2022-10-30T14:05:57;23.40;90.80
40123;DHT22;25832;45.490;4.912;2022-10-30T14:11:00;23.40;88.80
40123;DHT22;25832;45.490;4.912;2022-10-30T14:13:53;23.50;90.10
40123;DHT22;25832;45.490;4.912;2022-10-30T14:19:17;23.40;90.80
40123;DHT22;25832;45.490;4.912;2022-10-30T14:21:58;23.40;90.50
40123;DHT22;25832;45.490;4.912;2022-10-30T14:32:40;23.30;91.50
40123;DHT22;25832;45.490;4.912;2022-10-30T14:39:48;23.20;91.50
40123;DHT22;25832;45.490;4.912;2022-10-30T14:42:37;23.20;91.90
40123;DHT22;25832;45.490;4.912;2022-10-30T14:45:21;23.30;91.50
40123;DHT22;25832;45.490;4.912;2022-10-30T14:53:29;23.20;91.50
40123;DHT22;25832;45.490;4.912;2022-10-30T14:58:35;23.20;91.30
40123;DHT22;25832;45.490;4.912;2022-10-30T15:06:51;23.10;90.30
40123;DHT22;25832;45.490;4.912;2022-10-30T15:09:24;23.10;90.10
40123;DHT22;25832;45.490;4.912;2022-10-30T15:14:34;22.90;90.30
40123;DHT22;25832;45.490;4.912;2022-10-30T15:17:01;22.80;88.80
40123;DHT22;25832;45.490;4.912;2022-10-30T15:19:27;22.80;88.70
40123;DHT22;25832;45.490;4.912;2022-10-30T15:21:55;22.80;89.80
40123;DHT22;25832;45.490;4.912;2022-10-30T15:24:26;22.70;89.20
40123;DHT22;25832;45.490;4.912;2022-10-30T15:26:54;22.60;89.40
40123;DHT22;25832;45.490;4.912;2022-10-30T15:29:32;22.50;89.10
40123;DHT22;25832;45.490;4.912;2022-10-30T15:32:13;22.40;90.10
40123;DHT22;25832;45.490;4.912;2022-10-30T15:34:39;22.30;90.00
40123;DHT22;25832;45.490;4.912;2022-10-30T15:37:11;22.20;90.30
40123;DHT22;25832;45.490;4.912;2022-10-30T15:39:37;22.10;90.20
40123;DHT22;25832;45.490;4.912;2022-10-30T15:42:03;22.00;90.40
40123;DHT22;25832;45.490;4.912;2022-10-30T15:44:40;21.90;90.60
40123;DHT22;25832;45.490;4.912;2022-10-30T15:47:16;21.80;90.90
40123;DHT22;25832;45.490;4.912;2022-10-30T15:49:51;21.70;90.80
40123;DHT22;25832;45.490;4.912;2022-10-30T15:52:25;21.60;91.10
40123;DHT22;25832;45.490;4.912;2022-10-30T15:55:07;21.50;91.60
40123;DHT22;25832;45.490;4.912;2022-10-30T15:57:38;21.40;92.10
40123;DHT22;25832;45.490;4.912;2022-10-30T16:00:17;21.20;92.50
40123;DHT22;25832;45.490;4.912;2022-10-30T16:02:47;21.10;93.00
40123;DHT22;25832;45.490;4.912;2022-10-30T16:05:22;21.00;93.60
40123;DHT22;25832;45.490;4.912;2022-10-30T16:07:48;20.90;94.20
40123;DHT22;25832;45.490;4.912;2022-10-30T16:10:16;20.70;94.60
40123;DHT22;25832;45.490;4.912;2022-10-30T16:12:42;20.60;95.00
40123;DHT22;25832;45.490;4.912;2022-10-30T16:15:28;20.60;95.30
40123;DHT22;25832;45.490;4.912;2022-10-30T16:20:41;20.40;95.80
40123;DHT22;25832;45.490;4.912;2022-10-30T16:23:07;20.30;96.10
40123;DHT22;25832;45.490;4.912;2022-10-30T16:25:34;20.20;96.30
40123;DHT22;25832;45.490;4.912;2022-10-30T16:28:03;20.00;96.50
40123;DHT22;25832;45.490;4.912;2022-10-30T16:30:30;19.90;96.70
40123;DHT22;25832;45.490;4.912;2022-10-30T16:32:57;19.90;97.00
40123;DHT22;25832;45.490;4.912;2022-10-30T16:35:24;19.80;97.00
40123;DHT22;25832;45.490;4.912;2022-10-30T16:37:50;19.70;97.20
40123;DHT22;25832;45.490;4.912;2022-10-30T16:40:26;19.60;97.20
40123;DHT22;25832;45.490;4.912;2022-10-30T16:43:00;19.60;97.40
40123;DHT22;25832;45.490;4.912;2022-10-30T16:48:21;19.50;97.70
40123;DHT22;25832;45.490;4.912;2022-10-30T16:50:57;19.40;97.70
40123;DHT22;25832;45.490;4.912;2022-10-30T16:53:24;19.30;98.00
40123;DHT22;25832;45.490;4.912;2022-10-30T16:55:51;19.20;98.10
40123;DHT22;25832;45.490;4.912;2022-10-30T16:58:18;19.20;98.30
40123;DHT22;25832;45.490;4.912;2022-10-30T17:01:04;19.10;98.40
40123;DHT22;25832;45.490;4.912;2022-10-30T17:03:37;19.10;98.50
40123;DHT22;25832;45.490;4.912;2022-10-30T17:06:27;19.00;98.70
40123;DHT22;25832;45.490;4.912;2022-10-30T17:08:52;18.90;98.80
40123;DHT22;25832;45.490;4.912;2022-10-30T17:11:32;18.90;99.20
40123;DHT22;25832;45.490;4.912;2022-10-30T17:13:59;18.80;99.40
40123;DHT22;25832;45.490;4.912;2022-10-30T17:16:34;18.80;99.30
40123;DHT22;25832;45.490;4.912;2022-10-30T17:22:01;18.70;99.50
40123;DHT22;25832;45.490;4.912;2022-10-30T17:24:34;18.70;99.60
40123;DHT22;25832;45.490;4.912;2022-10-30T17:27:03;18.70;99.70
40123;DHT22;25832;45.490;4.912;2022-10-30T17:29:49;18.70;99.90
40123;DHT22;25832;45.490;4.912;2022-10-30T17:32:22;18.70;99.90
40123;DHT22;25832;45.490;4.912;2022-10-30T17:35:15;18.60;99.90
40123;DHT22;25832;45.490;4.912;2022-10-30T17:37:39;18.60;99.90
40123;DHT22;25832;45.490;4.912;2022-10-30T17:40:05;18.60;99.90
40123;DHT22;25832;45.490;4.912;2022-10-30T17:42:30;18.60;99.90
40123;DHT22;25832;45.490;4.912;2022-10-30T17:44:56;18.50;99.90
40123;DHT22;25832;45.490;4.912;2022-10-30T17:47:22;18.40;99.90
40123;DHT22;25832;45.490;4.912;2022-10-30T17:49:48;18.40;99.90
40123;DHT22;25832;45.490;4.912;2022-10-30T17:52:16;18.30;99.90
40123;DHT22;25832;45.490;4.912;2022-10-30T17:54:42;18.30;99.90
40123;DHT22;25832;45.490;4.912;2022-10-30T17:57:14;18.20;99.90
40123;DHT22;25832;45.490;4.912;2022-10-30T17:59:41;18.10;99.90
40123;DHT22;25832;45.490;4.912;2022-10-30T18:02:18;18.10;99.90
40123;DHT22;25832;45.490;4.912;2022-10-30T18:04:44;18.10;99.90
40123;DHT22;25832;45.490;4.912;2022-10-30T18:07:12;18.10;99.90
40123;DHT22;25832;45.490;4.912;2022-10-30T18:09:39;18.00;99.90
40123;DHT22;25832;45.490;4.912;2022-10-30T18:12:09;17.90;99.90
40123;DHT22;25832;45.490;4.912;2022-10-30T18:14:35;17.80;99.90